Time;durP1;ratioP1;P1;durP2;ratioP2;P2;SDS_P1;SDS_P2;PMS_P1;PMS_P2;Temp;Humidity;BMP_temperature;BMP_pressure;BME280_temperature;BME280_humidity;BME280_pressure;Samples;Min_cycle;Max_cycle;Signal;HPM_P1;HPM_P2
2023/05/09 00:01:12;;;;;;;7.97;4.23;;;14.70;61.20;;;;;;5010754;28;20284;-66
2023/05/09 00:03:41;;;;;;;7.23;4.00;;;14.70;61.30;;;;;;4990597;28;20298;-66
2023/05/09 00:06:08;;;;;;;5.87;3.87;;;14.60;61.20;;;;;;4982022;28;20277;-66
2023/05/09 00:08:37;;;;;;;10.17;4.30;;;14.60;61.30;;;;;;4989308;28;20580;-65
2023/05/09 00:11:05;;;;;;;7.37;3.70;;;14.50;61.40;;;;;;4988136;28;20223;-66
2023/05/09 00:13:32;;;;;;;6.03;3.60;;;14.60;61.50;;;;;;4983264;28;20663;-66
2023/05/09 00:16:07;;;;;;;6.10;3.67;;;14.50;62.30;;;;;;4989840;28;20687;-66
2023/05/09 00:18:35;;;;;;;9.83;4.40;;;14.40;61.50;;;;;;4985202;28;20646;-66
2023/05/09 00:21:03;;;;;;;9.17;4.40;;;14.40;61.60;;;;;;4981751;28;20207;-66
2023/05/09 00:23:31;;;;;;;8.83;4.30;;;14.40;61.80;;;;;;4990255;28;20206;-65
2023/05/09 00:26:00;;;;;;;6.87;3.43;;;14.30;61.80;;;;;;4988970;28;20203;-65
2023/05/09 00:28:27;;;;;;;8.63;3.90;;;14.20;61.80;;;;;;4977619;28;20244;-66
2023/05/09 00:30:54;;;;;;;8.47;3.97;;;14.20;62.00;;;;;;4990405;28;20451;-66
2023/05/09 00:33:21;;;;;;;7.30;4.10;;;14.20;62.20;;;;;;4986653;28;20670;-66
2023/05/09 00:35:48;;;;;;;5.53;3.80;;;14.10;62.10;;;;;;4983314;28;20318;-66
2023/05/09 00:38:15;;;;;;;8.03;4.27;;;14.10;62.20;;;;;;4985989;28;20521;-66
2023/05/09 00:40:43;;;;;;;6.57;3.53;;;14.10;62.40;;;;;;5005238;28;20215;-66
2023/05/09 00:43:11;;;;;;;8.07;4.37;;;14.10;62.40;;;;;;4983270;28;20207;-66
2023/05/09 00:45:39;;;;;;;6.93;4.37;;;14.10;62.40;;;;;;4980593;28;20338;-65
2023/05/09 00:48:06;;;;;;;9.07;4.80;;;14.00;63.10;;;;;;4989384;28;20678;-66
2023/05/09 00:50:34;;;;;;;9.73;4.63;;;13.70;62.20;;;;;;4988055;28;20695;-65
2023/05/09 00:53:02;;;;;;;8.30;4.20;;;13.90;62.60;;;;;;4982035;28;20615;-66
2023/05/09 00:55:30;;;;;;;15.73;4.90;;;13.90;62.70;;;;;;4990492;28;20698;-65
2023/05/09 00:57:57;;;;;;;6.37;4.07;;;13.90;62.90;;;;;;4988176;28;20203;-65
2023/05/09 01:00:28;;;;;;;7.20;4.20;;;13.80;62.80;;;;;;4982921;28;20731;-66
2023/05/09 01:02:56;;;;;;;6.93;4.43;;;13.80;62.70;;;;;;4997745;28;20312;-66
2023/05/09 01:05:25;;;;;;;7.67;4.37;;;13.80;62.90;;;;;;4984457;28;20210;-66
2023/05/09 01:08:16;;;;;;;10.57;4.23;;;13.80;63.00;;;;;;5001843;28;20255;-65
2023/05/09 01:10:49;;;;;;;6.23;4.00;;;13.80;63.00;;;;;;5009823;28;20197;-66
2023/05/09 01:13:24;;;;;;;6.53;3.97;;;13.70;62.90;;;;;;4994626;28;20240;-66
2023/05/09 01:16:04;;;;;;;8.10;4.30;;;13.70;63.00;;;;;;5007931;28;20208;-66
2023/05/09 01:18:40;;;;;;;12.13;5.03;;;13.60;63.00;;;;;;5006238;28;20206;-67
2023/05/09 01:21:13;;;;;;;9.67;4.63;;;13.60;63.00;;;;;;5004864;28;20186;-67
2023/05/09 01:23:59;;;;;;;8.70;4.83;;;13.60;63.00;;;;;;4992650;28;20209;-65
2023/05/09 01:26:36;;;;;;;19.23;7.43;;;13.50;62.90;;;;;;5011846;28;20190;-66
2023/05/09 01:29:36;;;;;;;13.43;6.37;;;13.40;63.00;;;;;;5011069;28;20205;-66
2023/05/09 01:32:07;;;;;;;16.10;6.50;;;13.40;63.00;;;;;;5004056;28;20668;-65
2023/05/09 01:34:37;;;;;;;8.87;5.33;;;13.40;63.00;;;;;;4995475;28;20321;-66
2023/05/09 01:37:06;;;;;;;13.93;6.07;;;13.40;63.70;;;;;;4995800;28;20214;-66
2023/05/09 01:39:36;;;;;;;11.63;5.50;;;13.40;63.00;;;;;;5001062;28;20609;-66
2023/05/09 01:42:07;;;;;;;9.83;5.10;;;13.40;62.50;;;;;;5008028;28;20363;-65
2023/05/09 01:44:42;;;;;;;12.73;5.83;;;13.40;62.30;;;;;;4994362;28;20236;-66
2023/05/09 01:47:11;;;;;;;8.83;4.60;;;13.30;62.20;;;;;;4984258;28;20298;-66
2023/05/09 01:49:39;;;;;;;8.73;4.67;;;13.30;62.40;;;;;;5011415;28;20196;-66
2023/05/09 01:52:09;;;;;;;6.20;3.83;;;13.20;61.90;;;;;;5012462;28;20198;-66
2023/05/09 01:54:39;;;;;;;6.43;3.50;;;13.20;61.80;;;;;;5003833;28;20197;-66
2023/05/09 01:57:08;;;;;;;7.47;4.00;;;13.20;61.80;;;;;;5004977;28;20213;-66
2023/05/09 01:59:40;;;;;;;4.73;3.43;;;13.20;61.70;;;;;;5013079;28;20208;-66
2023/05/09 02:02:08;;;;;;;3.93;2.90;;;13.20;61.50;;;;;;5009756;28;20664;-65
2023/05/09 02:04:41;;;;;;;3.23;2.57;;;13.20;61.40;;;;;;5003463;28;20190;-66
2023/05/09 02:07:09;;;;;;;3.23;2.63;;;13.20;61.30;;;;;;5011438;28;20206;-66
2023/05/09 02:09:36;;;;;;;2.97;2.50;;;13.20;61.00;;;;;;5010233;28;20199;-66
2023/05/09 02:12:05;;;;;;;4.43;3.07;;;13.20;60.80;;;;;;4988780;28;20636;-65
2023/05/09 02:14:33;;;;;;;3.70;2.67;;;13.20;60.80;;;;;;4994493;28;20645;-65
2023/05/09 02:17:05;;;;;;;3.50;2.73;;;13.10;60.80;;;;;;4994528;28;20217;-65
2023/05/09 02:19:34;;;;;;;3.57;2.73;;;13.00;60.70;;;;;;5009511;28;20253;-65
2023/05/09 02:22:03;;;;;;;4.00;2.77;;;13.00;60.70;;;;;;5012136;28;20242;-66
2023/05/09 02:24:33;;;;;;;3.67;2.20;;;12.50;60.30;;;;;;4994694;28;20205;-66
2023/05/09 02:27:01;;;;;;;6.07;2.80;;;12.90;60.80;;;;;;5009737;28;20298;-66
2023/05/09 02:29:38;;;;;;;6.47;3.00;;;12.90;60.80;;;;;;5012648;28;20242;-66
2023/05/09 02:32:10;;;;;;;3.80;3.00;;;12.90;60.70;;;;;;5011646;28;20238;-66
2023/05/09 02:34:38;;;;;;;3.93;2.63;;;12.90;60.60;;;;;;4990141;28;20233;-66
2023/05/09 02:37:07;;;;;;;2.80;2.33;;;12.90;60.60;;;;;;4992005;28;20223;-65
2023/05/09 02:39:35;;;;;;;4.77;3.80;;;12.80;60.60;;;;;;5010011;28;20296;-65
2023/05/09 02:42:08;;;;;;;4.17;3.17;;;12.80;60.80;;;;;;5011513;28;20215;-64
2023/05/09 02:44:36;;;;;;;7.63;4.00;;;12.70;61.60;;;;;;5007892;28;20195;-65
2023/05/09 02:47:03;;;;;;;6.00;4.00;;;12.70;60.80;;;;;;5011732;28;20210;-66
2023/05/09 02:49:32;;;;;;;7.53;4.30;;;12.60;60.70;;;;;;5011401;28;20588;-65
2023/05/09 02:52:00;;;;;;;4.57;3.40;;;12.60;60.80;;;;;;5011441;28;20619;-66
2023/05/09 02:54:27;;;;;;;4.03;3.37;;;12.60;60.80;;;;;;5011345;28;20196;-66
2023/05/09 02:56:54;;;;;;;10.60;4.93;;;12.50;60.80;;;;;;5011427;28;20305;-66
2023/05/09 02:59:21;;;;;;;9.00;4.40;;;12.50;60.90;;;;;;4994010;28;20690;-66
2023/05/09 03:01:49;;;;;;;7.50;4.77;;;12.40;60.90;;;;;;4992732;28;20756;-65
2023/05/09 03:04:16;;;;;;;8.30;4.73;;;12.40;60.90;;;;;;4989471;28;20240;-65
2023/05/09 03:06:45;;;;;;;8.03;4.77;;;12.40;60.80;;;;;;4989648;28;20206;-65
2023/05/09 03:09:13;;;;;;;8.20;4.70;;;12.30;60.80;;;;;;4990279;28;20211;-66
2023/05/09 03:11:40;;;;;;;5.73;4.10;;;12.30;60.80;;;;;;4990624;28;20192;-66
2023/05/09 03:14:09;;;;;;;9.60;5.10;;;12.30;61.40;;;;;;4990680;28;20232;-66
2023/05/09 03:16:36;;;;;;;12.40;4.73;;;12.30;60.80;;;;;;4992410;28;20216;-66
2023/05/09 03:19:05;;;;;;;7.30;4.47;;;12.20;60.80;;;;;;4988912;28;20553;-67
2023/05/09 03:21:33;;;;;;;6.27;4.07;;;12.20;60.70;;;;;;4986759;28;20210;-66
2023/05/09 03:24:03;;;;;;;5.57;3.67;;;12.20;60.90;;;;;;4982969;28;20211;-67
2023/05/09 03:26:30;;;;;;;6.00;4.10;;;12.20;60.90;;;;;;4985311;28;20705;-66
2023/05/09 03:28:58;;;;;;;6.07;3.90;;;12.20;60.90;;;;;;4990046;28;20553;-67
2023/05/09 03:31:25;;;;;;;6.03;3.90;;;12.20;60.90;;;;;;4992478;28;20219;-63
2023/05/09 03:33:52;;;;;;;7.10;3.57;;;12.20;60.80;;;;;;4985832;28;20211;-64
2023/05/09 03:36:20;;;;;;;5.43;3.20;;;12.20;60.80;;;;;;4988865;28;20227;-65
2023/05/09 03:38:47;;;;;;;5.77;3.90;;;12.20;60.60;;;;;;4989799;28;20570;-65
2023/05/09 03:41:17;;;;;;;8.30;3.93;;;12.20;60.80;;;;;;4992793;28;20209;-65
2023/05/09 03:43:46;;;;;;;5.10;4.07;;;12.20;60.90;;;;;;5002145;28;20215;-65
2023/05/09 03:46:13;;;;;;;5.20;3.20;;;12.10;60.70;;;;;;4987035;28;20201;-63
2023/05/09 03:48:42;;;;;;;5.63;3.77;;;12.20;60.80;;;;;;4987904;28;20207;-65
2023/05/09 03:51:09;;;;;;;7.23;5.03;;;12.10;60.80;;;;;;4991137;28;20208;-65
2023/05/09 03:53:39;;;;;;;6.50;4.60;;;13.40;62.00;;;;;;4989086;28;20687;-65
2023/05/09 03:56:08;;;;;;;7.00;4.43;;;12.10;60.70;;;;;;4987345;28;20711;-66
2023/05/09 03:58:43;;;;;;;8.80;4.90;;;12.00;60.70;;;;;;4986904;28;20204;-65
2023/05/09 04:01:11;;;;;;;5.43;4.10;;;12.00;60.80;;;;;;4987191;28;20699;-65
2023/05/09 04:03:40;;;;;;;6.97;4.60;;;11.90;60.80;;;;;;4985709;28;20521;-65
2023/05/09 04:06:07;;;;;;;6.37;4.20;;;12.00;60.90;;;;;;4983045;28;20227;-66
2023/05/09 04:08:38;;;;;;;6.73;4.70;;;12.00;60.90;;;;;;4988130;28;20686;-65
2023/05/09 04:11:06;;;;;;;8.53;5.13;;;11.90;60.90;;;;;;4990261;28;20203;-65
2023/05/09 04:13:34;;;;;;;7.57;4.70;;;11.90;61.70;;;;;;4986596;28;20201;-65
2023/05/09 04:16:07;;;;;;;5.37;4.30;;;11.90;61.00;;;;;;4988211;28;20219;-65
2023/05/09 04:18:35;;;;;;;5.37;3.83;;;11.90;61.20;;;;;;4988630;28;20210;-66
2023/05/09 04:21:02;;;;;;;8.27;4.40;;;11.90;61.10;;;;;;4990242;28;20207;-66
2023/05/09 04:23:29;;;;;;;5.60;4.27;;;12.00;61.30;;;;;;4988711;28;20210;-66
2023/05/09 04:25:58;;;;;;;5.83;3.60;;;12.00;61.20;;;;;;4989304;28;20303;-66
2023/05/09 04:28:30;;;;;;;7.27;3.73;;;12.00;61.10;;;;;;4990889;28;20239;-66
2023/05/09 04:30:58;;;;;;;8.90;3.60;;;11.80;60.80;;;;;;4989900;28;20310;-66
2023/05/09 04:33:27;;;;;;;6.97;3.93;;;12.20;61.30;;;;;;4984342;28;20214;-66
2023/05/09 04:36:00;;;;;;;5.50;3.70;;;12.30;61.20;;;;;;4988458;28;20600;-66
2023/05/09 04:38:27;;;;;;;6.17;3.90;;;12.30;61.10;;;;;;4989630;28;20580;-66
2023/05/09 04:40:54;;;;;;;6.00;3.73;;;12.30;60.90;;;;;;4983613;28;20251;-67
2023/05/09 04:43:21;;;;;;;6.20;4.00;;;12.30;60.90;;;;;;4985175;28;20254;-66
2023/05/09 04:45:49;;;;;;;7.00;4.00;;;12.40;61.20;;;;;;4990761;28;20279;-66
2023/05/09 04:48:16;;;;;;;9.00;4.57;;;12.40;61.00;;;;;;4984919;28;20268;-66
2023/05/09 04:50:47;;;;;;;8.37;4.37;;;12.40;61.00;;;;;;4990394;28;20310;-65
2023/05/09 04:53:14;;;;;;;7.60;4.90;;;12.50;61.00;;;;;;4987894;28;20678;-64
2023/05/09 04:55:42;;;;;;;5.63;3.77;;;12.50;61.10;;;;;;4984858;28;20326;-64
2023/05/09 04:58:09;;;;;;;9.57;5.03;;;12.50;61.20;;;;;;4988638;28;20214;-65
2023/05/09 05:00:36;;;;;;;10.10;4.90;;;12.60;61.50;;;;;;4988195;28;20203;-66
2023/05/09 05:03:04;;;;;;;8.43;5.03;;;12.60;61.60;;;;;;4990673;28;20277;-66
2023/05/09 05:05:32;;;;;;;8.63;5.20;;;12.60;62.30;;;;;;4989891;28;20232;-65
2023/05/09 05:08:00;;;;;;;10.37;5.20;;;12.60;61.60;;;;;;5003215;28;20651;-66
2023/05/09 05:10:32;;;;;;;10.17;5.33;;;12.70;61.70;;;;;;4986008;28;20208;-66
2023/05/09 05:13:05;;;;;;;8.50;5.87;;;12.70;61.80;;;;;;4986392;28;20586;-66
2023/05/09 05:15:34;;;;;;;6.60;5.07;;;12.70;61.80;;;;;;4999472;28;20208;-66
2023/05/09 05:18:02;;;;;;;11.03;6.00;;;12.80;61.90;;;;;;4984482;28;20584;-66
2023/05/09 05:20:34;;;;;;;10.47;5.50;;;12.80;61.90;;;;;;4992281;28;20306;-66
2023/05/09 05:23:02;;;;;;;9.60;5.27;;;12.80;61.90;;;;;;4986134;28;20204;-65
2023/05/09 05:25:30;;;;;;;9.13;5.10;;;12.90;62.00;;;;;;4988062;28;20200;-66
2023/05/09 05:27:59;;;;;;;7.47;4.20;;;12.90;62.00;;;;;;5005906;28;20264;-65
2023/05/09 05:30:26;;;;;;;8.07;4.23;;;13.00;62.00;;;;;;4987724;28;20269;-66
2023/05/09 05:32:53;;;;;;;6.53;4.40;;;13.00;61.90;;;;;;4990745;28;20219;-65
2023/05/09 05:35:22;;;;;;;5.50;4.10;;;13.10;62.10;;;;;;4989010;28;20266;-65
2023/05/09 05:37:50;;;;;;;5.07;3.83;;;13.10;62.10;;;;;;4999890;28;20232;-65
2023/05/09 05:40:19;;;;;;;5.53;3.40;;;13.20;62.10;;;;;;4991643;28;20231;-65
2023/05/09 05:42:48;;;;;;;3.93;3.17;;;13.30;62.10;;;;;;4987133;28;20912;-65
2023/05/09 05:45:16;;;;;;;8.57;3.80;;;13.40;62.10;;;;;;4982743;28;20209;-65
2023/05/09 05:47:48;;;;;;;6.00;3.80;;;13.50;62.20;;;;;;4986541;28;20229;-66
2023/05/09 05:50:16;;;;;;;4.23;3.70;;;13.60;62.20;;;;;;4993143;28;20244;-66
2023/05/09 05:52:43;;;;;;;3.40;3.10;;;13.60;62.10;;;;;;4989583;28;20207;-66
2023/05/09 05:55:13;;;;;;;6.30;3.20;;;13.70;62.10;;;;;;4989058;28;20647;-65
2023/05/09 05:57:42;;;;;;;4.20;3.13;;;13.80;62.10;;;;;;4984111;28;20214;-65
2023/05/09 06:00:15;;;;;;;7.80;3.70;;;13.80;62.00;;;;;;4981625;28;20198;-66
2023/05/09 06:02:49;;;;;;;5.80;3.63;;;13.90;62.10;;;;;;4985744;28;20739;-64
2023/05/09 06:05:23;;;;;;;3.27;2.97;;;14.00;62.10;;;;;;5004813;28;20193;-65
2023/05/09 06:07:51;;;;;;;7.10;3.53;;;14.00;61.90;;;;;;4989156;28;20208;-65
2023/05/09 06:10:18;;;;;;;5.00;3.27;;;14.10;61.90;;;;;;4986610;28;20758;-66
2023/05/09 06:12:47;;;;;;;8.93;4.30;;;14.20;61.90;;;;;;4988172;28;20227;-66
2023/05/09 06:15:14;;;;;;;5.27;3.67;;;14.30;61.90;;;;;;4990121;28;20203;-66
2023/05/09 06:17:45;;;;;;;4.67;3.50;;;14.40;62.00;;;;;;5004022;28;20237;-66
2023/05/09 06:20:12;;;;;;;4.50;2.97;;;14.50;61.90;;;;;;4977679;28;20205;-66
2023/05/09 06:22:40;;;;;;;3.97;2.83;;;14.50;61.80;;;;;;4987957;28;20659;-66
2023/05/09 06:25:07;;;;;;;4.07;2.60;;;14.70;61.90;;;;;;4988786;28;20203;-66
2023/05/09 06:27:35;;;;;;;4.63;2.67;;;14.70;61.90;;;;;;4986506;28;20302;-66
2023/05/09 06:30:04;;;;;;;3.13;2.80;;;14.80;62.00;;;;;;4984776;28;20216;-66
2023/05/09 06:32:31;;;;;;;6.07;3.40;;;14.80;62.00;;;;;;4991032;28;20659;-66
2023/05/09 06:34:58;;;;;;;5.63;3.80;;;14.90;62.10;;;;;;4988840;28;20213;-66
2023/05/09 06:37:25;;;;;;;4.70;3.10;;;15.00;61.50;;;;;;4988126;28;20217;-66
2023/05/09 06:39:52;;;;;;;4.57;3.00;;;15.10;61.40;;;;;;4984137;28;20199;-66
2023/05/09 06:42:19;;;;;;;3.87;3.07;;;15.10;61.40;;;;;;4989188;28;20565;-66
2023/05/09 06:44:46;;;;;;;4.63;3.03;;;15.30;61.50;;;;;;4986394;28;20667;-66
2023/05/09 06:47:15;;;;;;;2.87;2.43;;;15.30;61.50;;;;;;4990801;28;20205;-66
2023/05/09 06:49:42;;;;;;;7.13;3.57;;;15.40;61.40;;;;;;4981657;28;21179;-66
2023/05/09 06:52:09;;;;;;;9.93;4.33;;;15.50;61.80;;;;;;4988506;28;20192;-65
2023/05/09 06:54:36;;;;;;;9.07;3.60;;;15.50;60.60;;;;;;4984778;28;20210;-66
2023/05/09 06:57:03;;;;;;;7.70;3.83;;;15.60;60.30;;;;;;4988886;28;20302;-66
2023/05/09 06:59:30;;;;;;;3.23;2.43;;;15.70;60.10;;;;;;4988360;28;20663;-65
2023/05/09 07:01:57;;;;;;;7.97;3.90;;;15.80;60.20;;;;;;4990506;28;20196;-66
2023/05/09 07:04:26;;;;;;;7.30;3.77;;;15.90;60.40;;;;;;4983814;28;20291;-66
2023/05/09 07:06:53;;;;;;;4.27;3.30;;;16.00;60.00;;;;;;4990335;28;20503;-67
2023/05/09 07:09:20;;;;;;;6.37;3.60;;;16.10;59.70;;;;;;4984767;28;20210;-66
2023/05/09 07:11:47;;;;;;;4.87;2.93;;;16.10;59.10;;;;;;4976437;28;20203;-66
2023/05/09 07:14:14;;;;;;;5.60;3.57;;;16.20;59.00;;;;;;4983048;28;20203;-66
2023/05/09 07:16:42;;;;;;;4.53;3.10;;;16.30;59.10;;;;;;4990627;28;20566;-66
2023/05/09 07:19:09;;;;;;;5.90;3.77;;;16.40;59.10;;;;;;4984042;28;20216;-67
2023/05/09 07:21:37;;;;;;;7.30;4.10;;;16.40;58.80;;;;;;4987196;28;20683;-66
2023/05/09 07:24:05;;;;;;;6.37;3.70;;;16.50;58.50;;;;;;4982280;28;20185;-66
2023/05/09 07:26:32;;;;;;;6.27;4.03;;;16.60;58.40;;;;;;4987092;28;20283;-66
2023/05/09 07:29:01;;;;;;;7.23;3.73;;;16.60;58.30;;;;;;4984085;28;20204;-66
2023/05/09 07:31:29;;;;;;;6.93;4.10;;;16.70;58.10;;;;;;4986670;28;20223;-67
2023/05/09 07:33:56;;;;;;;8.90;3.13;;;16.80;57.60;;;;;;4981844;28;20211;-65
2023/05/09 07:36:23;;;;;;;4.67;2.93;;;16.90;57.80;;;;;;4989439;28;20262;-65
2023/05/09 07:38:53;;;;;;;4.40;2.53;;;16.90;57.70;;;;;;4985317;28;20222;-66
2023/05/09 07:41:21;;;;;;;6.63;3.40;;;17.00;57.90;;;;;;4987228;28;20239;-64
2023/05/09 07:43:48;;;;;;;8.30;3.90;;;17.10;58.20;;;;;;4987289;28;20559;-66
2023/05/09 07:46:15;;;;;;;6.83;2.73;;;17.20;57.60;;;;;;4987036;28;20598;-66
2023/05/09 07:48:42;;;;;;;5.93;3.30;;;17.30;57.50;;;;;;4987998;28;20537;-65
2023/05/09 07:51:09;;;;;;;3.37;2.60;;;17.30;57.40;;;;;;4987381;28;20212;-65
2023/05/09 07:53:36;;;;;;;6.50;3.13;;;17.40;57.10;;;;;;4984513;28;20197;-66
2023/05/09 07:56:06;;;;;;;7.53;3.57;;;17.50;55.90;;;;;;4989588;28;20231;-66
2023/05/09 07:58:37;;;;;;;8.63;3.33;;;17.50;54.90;;;;;;4987326;28;20215;-66
2023/05/09 08:01:06;;;;;;;5.10;3.37;;;17.60;54.80;;;;;;4984338;28;20231;-65
2023/05/09 08:03:33;;;;;;;6.30;3.40;;;17.60;55.00;;;;;;4997623;28;20229;-66
2023/05/09 08:06:00;;;;;;;6.50;3.30;;;17.70;54.80;;;;;;5007143;28;20202;-66
2023/05/09 08:08:27;;;;;;;7.97;2.93;;;17.80;53.90;;;;;;5003400;28;20195;-66
2023/05/09 08:10:55;;;;;;;4.00;2.90;;;17.90;53.70;;;;;;5008652;28;20683;-66
2023/05/09 08:13:24;;;;;;;6.37;3.50;;;17.90;52.90;;;;;;4999965;28;20202;-66
2023/05/09 08:15:51;;;;;;;6.33;3.60;;;17.90;52.80;;;;;;5005912;28;20663;-66
2023/05/09 08:18:18;;;;;;;5.77;3.60;;;18.00;53.00;;;;;;5006667;28;20432;-67
2023/05/09 08:20:45;;;;;;;4.67;3.47;;;18.10;53.30;;;;;;4999833;28;20520;-67
2023/05/09 08:23:12;;;;;;;7.33;3.50;;;18.10;53.30;;;;;;5001521;28;20191;-66
2023/05/09 08:25:40;;;;;;;5.53;3.10;;;18.20;53.00;;;;;;4990869;28;20205;-67
2023/05/09 08:28:07;;;;;;;5.20;3.63;;;18.20;52.80;;;;;;5001084;28;20271;-66
2023/05/09 08:30:35;;;;;;;5.63;3.30;;;18.30;52.70;;;;;;5005739;28;20203;-66
2023/05/09 08:33:02;;;;;;;4.37;3.17;;;18.30;52.30;;;;;;5003602;28;20269;-66
2023/05/09 08:35:29;;;;;;;5.07;3.53;;;18.40;51.80;;;;;;5002548;28;20211;-67
2023/05/09 08:37:57;;;;;;;6.80;3.43;;;18.50;50.20;;;;;;4992147;28;20208;-67
2023/05/09 08:40:24;;;;;;;4.03;2.60;;;18.50;49.50;;;;;;5004211;28;20302;-66
2023/05/09 08:42:51;;;;;;;3.72;2.75;;;18.50;49.50;;;;;;5004665;28;20638;-66
2023/05/09 08:45:28;;;;;;;4.90;2.90;;;18.60;49.60;;;;;;5005732;28;20712;-66
2023/05/09 08:47:57;;;;;;;3.63;2.70;;;19.90;50.20;;;;;;5001412;28;20562;-67
2023/05/09 08:50:25;;;;;;;6.00;3.03;;;18.70;48.70;;;;;;5007871;28;20191;-66
2023/05/09 08:52:53;;;;;;;5.30;3.13;;;18.80;48.40;;;;;;4997877;28;20219;-67
2023/05/09 08:55:21;;;;;;;3.63;2.85;;;18.90;47.50;;;;;;5007495;28;20507;-66
2023/05/09 08:57:49;;;;;;;2.30;2.10;;;18.90;47.60;;;;;;5007896;28;20205;-66
2023/05/09 09:00:19;;;;;;;4.22;2.80;;;19.00;47.90;;;;;;5002415;28;20197;-67
2023/05/09 09:02:47;;;;;;;5.53;2.80;;;19.00;46.80;;;;;;4988704;28;20249;-67
2023/05/09 09:05:17;;;;;;;3.15;2.20;;;19.00;45.60;;;;;;5004650;28;20609;-65
2023/05/09 09:07:46;;;;;;;3.85;2.80;;;19.00;44.90;;;;;;5003037;28;20186;-66
2023/05/09 09:10:13;;;;;;;3.17;2.78;;;19.10;45.30;;;;;;4987334;28;20198;-66
2023/05/09 09:12:42;;;;;;;9.75;3.10;;;19.10;45.40;;;;;;5001763;28;20195;-66
2023/05/09 09:15:16;;;;;;;4.30;2.78;;;19.20;44.90;;;;;;5002466;28;20209;-66
2023/05/09 09:17:48;;;;;;;2.78;2.20;;;19.20;44.40;;;;;;5007200;28;20206;-66
2023/05/09 09:20:21;;;;;;;2.17;1.98;;;19.20;44.10;;;;;;4988579;28;20206;-66
2023/05/09 09:22:51;;;;;;;3.92;2.80;;;19.30;44.20;;;;;;5004824;28;20276;-66
2023/05/09 09:25:19;;;;;;;5.45;3.05;;;19.40;43.80;;;;;;4989628;28;20194;-66
2023/05/09 09:27:46;;;;;;;3.78;2.90;;;19.40;43.40;;;;;;5003135;28;20511;-65
2023/05/09 09:30:14;;;;;;;5.93;2.70;;;19.40;43.90;;;;;;4989148;28;20791;-65
2023/05/09 09:32:41;;;;;;;5.22;3.05;;;19.30;44.40;;;;;;4989650;28;20206;-65
2023/05/09 09:35:09;;;;;;;3.07;2.77;;;19.40;45.20;;;;;;4985077;28;20262;-66
2023/05/09 09:37:40;;;;;;;3.42;2.75;;;19.50;45.50;;;;;;5004900;28;20571;-65
2023/05/09 09:40:09;;;;;;;8.48;2.92;;;19.60;45.50;;;;;;4997272;28;20202;-66
2023/05/09 09:42:43;;;;;;;3.97;2.90;;;19.60;45.30;;;;;;5002985;28;20202;-66
2023/05/09 09:45:12;;;;;;;5.47;2.63;;;19.70;45.70;;;;;;5009187;28;20201;-66
2023/05/09 09:47:39;;;;;;;9.90;3.30;;;19.70;46.00;;;;;;5010771;28;20586;-66
2023/05/09 09:50:11;;;;;;;3.47;2.72;;;19.80;45.80;;;;;;5009428;28;20204;-66
2023/05/09 09:52:46;;;;;;;4.38;3.35;;;19.90;45.40;;;;;;4995346;28;20219;-67
2023/05/09 09:55:15;;;;;;;2.30;2.10;;;19.90;45.30;;;;;;5009988;28;20515;-66
2023/05/09 09:57:47;;;;;;;6.28;2.75;;;19.90;45.60;;;;;;5011455;28;20281;-66
2023/05/09 10:00:16;;;;;;;4.03;3.10;;;20.00;45.70;;;;;;5010935;28;20279;-66
2023/05/09 10:02:50;;;;;;;4.55;3.30;;;20.10;45.90;;;;;;5007467;28;20691;-66
2023/05/09 10:05:22;;;;;;;3.63;2.75;;;20.00;45.70;;;;;;5012877;28;20621;-66
2023/05/09 10:07:59;;;;;;;3.22;2.50;;;20.00;46.10;;;;;;5011058;28;20625;-66
2023/05/09 10:10:27;;;;;;;4.65;3.30;;;20.10;46.60;;;;;;5003765;28;20186;-66
2023/05/09 10:12:57;;;;;;;4.20;3.45;;;20.10;46.80;;;;;;5011101;28;20251;-66
2023/05/09 10:15:25;;;;;;;2.85;2.60;;;20.10;46.80;;;;;;5013149;28;20732;-66
2023/05/09 10:17:56;;;;;;;3.42;3.13;;;20.20;46.50;;;;;;5008176;28;20208;-66
2023/05/09 10:20:23;;;;;;;3.28;2.75;;;20.20;45.90;;;;;;5013230;28;20278;-66
2023/05/09 10:22:56;;;;;;;3.85;3.17;;;20.20;45.50;;;;;;5010624;28;20670;-65
2023/05/09 10:25:27;;;;;;;3.78;3.10;;;20.20;45.70;;;;;;4993467;28;20199;-66
2023/05/09 10:27:58;;;;;;;3.95;3.10;;;20.20;45.30;;;;;;4993810;28;20204;-66
2023/05/09 10:30:31;;;;;;;2.25;2.15;;;20.30;45.40;;;;;;5007799;28;20196;-67
2023/05/09 10:33:03;;;;;;;3.20;2.90;;;20.30;45.50;;;;;;5002820;28;20698;-66
2023/05/09 10:35:36;;;;;;;7.28;2.60;;;20.30;45.00;;;;;;4992617;28;20204;-66
2023/05/09 10:38:05;;;;;;;2.50;2.17;;;20.40;44.70;;;;;;5007969;28;20895;-67
2023/05/09 10:40:33;;;;;;;2.20;2.00;;;20.40;44.70;;;;;;5012342;28;20658;-65
2023/05/09 10:43:01;;;;;;;3.45;2.20;;;20.40;43.80;;;;;;5008382;28;20230;-65
2023/05/09 10:45:28;;;;;;;2.97;2.00;;;20.50;43.30;;;;;;5008467;28;20780;-65
2023/05/09 10:47:56;;;;;;;2.00;1.80;;;20.50;43.20;;;;;;5011207;28;20562;-66
2023/05/09 10:50:23;;;;;;;2.63;2.42;;;20.50;43.30;;;;;;5012211;28;20559;-65
2023/05/09 10:53:12;;;;;;;5.32;1.75;;;20.60;42.90;;;;;;5007826;28;20265;-65
2023/05/09 10:55:49;;;;;;;2.65;2.15;;;20.60;42.60;;;;;;4996489;28;20227;-65
2023/05/09 10:58:30;;;;;;;3.75;1.70;;;20.60;42.70;;;;;;5010615;28;20222;-66
2023/05/09 11:00:59;;;;;;;2.20;1.67;;;20.70;42.70;;;;;;5008947;28;20200;-66
2023/05/09 11:03:27;;;;;;;2.40;2.05;;;20.70;42.70;;;;;;5010148;28;20238;-66
2023/05/09 11:05:56;;;;;;;2.83;1.80;;;20.80;42.60;;;;;;4992092;28;20206;-66
2023/05/09 11:08:27;;;;;;;2.22;1.73;;;20.80;42.40;;;;;;5009958;28;20294;-66
2023/05/09 11:10:56;;;;;;;2.95;2.00;;;20.80;41.80;;;;;;5006755;28;20195;-67
2023/05/09 11:13:38;;;;;;;1.83;1.52;;;20.80;42.10;;;;;;5003429;28;20279;-66
2023/05/09 11:16:11;;;;;;;3.92;1.65;;;20.90;42.50;;;;;;5012315;28;21237;-65
2023/05/09 11:18:52;;;;;;;1.73;1.55;;;21.00;42.40;;;;;;5001385;28;20274;-66
2023/05/09 11:21:21;;;;;;;3.67;2.45;;;21.10;42.10;;;;;;5008610;28;20214;-66
2023/05/09 11:23:50;;;;;;;3.85;1.60;;;21.10;41.60;;;;;;5011237;28;20207;-66
2023/05/09 11:26:22;;;;;;;3.17;1.92;;;21.10;41.70;;;;;;5006532;28;20195;-66
2023/05/09 11:28:53;;;;;;;6.10;1.70;;;21.00;41.60;;;;;;5008544;28;20315;-65
2023/05/09 11:31:21;;;;;;;2.17;1.90;;;21.00;41.60;;;;;;5011911;28;20207;-66
2023/05/09 11:33:57;;;;;;;2.13;1.92;;;21.40;58.90;;;;;;5008472;28;20674;-66
2023/05/09 11:36:34;;;;;;;2.95;1.60;;;21.60;54.70;;;;;;4997236;28;21635;-65
2023/05/09 11:39:05;;;;;;;1.88;1.77;;;21.10;41.40;;;;;;5009127;28;20215;-65
2023/05/09 11:41:40;;;;;;;2.13;1.88;;;21.20;41.30;;;;;;5004105;28;20222;-65
2023/05/09 11:44:15;;;;;;;1.98;1.60;;;21.20;40.80;;;;;;4993152;28;20584;-64
2023/05/09 11:46:42;;;;;;;2.05;1.80;;;21.20;40.40;;;;;;5008964;28;20278;-67
2023/05/09 11:49:11;;;;;;;2.30;2.10;;;21.20;40.90;;;;;;4996516;28;20250;-65
2023/05/09 11:51:38;;;;;;;2.13;1.95;;;21.20;40.50;;;;;;4997254;28;20199;-66
2023/05/09 11:54:07;;;;;;;2.38;1.90;;;21.30;40.50;;;;;;5009454;28;20299;-66
2023/05/09 11:56:36;;;;;;;1.83;1.42;;;21.30;40.70;;;;;;5000162;28;20225;-67
2023/05/09 11:59:03;;;;;;;2.75;1.80;;;21.40;40.20;;;;;;5007259;28;20709;-65
2023/05/09 12:01:30;;;;;;;2.40;1.63;;;21.40;40.30;;;;;;5009030;28;20202;-65
2023/05/09 12:03:58;;;;;;;2.13;1.92;;;21.40;40.30;;;;;;4998405;28;20236;-66
2023/05/09 12:06:26;;;;;;;2.83;2.00;;;21.50;40.10;;;;;;5005845;28;20204;-67
2023/05/09 12:08:56;;;;;;;1.83;1.73;;;21.60;39.70;;;;;;5008749;28;20276;-66
2023/05/09 12:11:25;;;;;;;1.98;1.67;;;21.50;39.50;;;;;;4993842;28;20287;-65
2023/05/09 12:13:52;;;;;;;2.28;1.70;;;21.60;39.10;;;;;;4994065;28;20731;-66
2023/05/09 12:16:21;;;;;;;1.95;1.80;;;21.60;39.20;;;;;;4990884;28;20305;-66
2023/05/09 12:18:50;;;;;;;1.98;1.80;;;21.60;39.90;;;;;;5005442;28;20278;-66
2023/05/09 12:21:17;;;;;;;4.43;2.00;;;21.60;39.00;;;;;;5003558;28;20203;-66
2023/05/09 12:23:45;;;;;;;2.90;1.95;;;21.70;39.20;;;;;;5007180;28;20231;-65
2023/05/09 12:26:13;;;;;;;1.75;1.60;;;21.70;39.10;;;;;;5008562;28;20284;-66
2023/05/09 12:28:42;;;;;;;2.08;1.70;;;21.70;38.40;;;;;;5004352;28;20264;-66
2023/05/09 12:31:09;;;;;;;1.70;1.60;;;21.70;38.10;;;;;;5009495;28;20301;-66
2023/05/09 12:33:39;;;;;;;2.05;1.73;;;21.70;38.10;;;;;;5000224;28;20286;-65
2023/05/09 12:36:09;;;;;;;1.95;1.70;;;21.70;38.40;;;;;;5006116;28;20197;-65
2023/05/09 12:38:36;;;;;;;1.73;1.63;;;21.70;38.40;;;;;;5007487;28;20221;-67
2023/05/09 12:41:07;;;;;;;2.72;2.08;;;21.80;38.40;;;;;;5005436;28;20195;-66
2023/05/09 12:43:36;;;;;;;2.08;1.75;;;21.80;38.20;;;;;;5004920;28;20199;-67
2023/05/09 12:46:05;;;;;;;7.97;1.67;;;21.80;38.20;;;;;;5009106;28;20244;-66
2023/05/09 12:48:37;;;;;;;11.65;6.45;;;21.80;37.90;;;;;;5002686;28;20189;-65
2023/05/09 12:51:04;;;;;;;7.45;3.80;;;21.80;37.60;;;;;;5009503;28;20639;-66
2023/05/09 12:53:32;;;;;;;2.08;1.88;;;21.80;37.60;;;;;;5007416;28;20225;-67
2023/05/09 12:56:02;;;;;;;1.60;1.50;;;21.80;37.00;;;;;;5005558;28;20187;-67